sensor_id;sensor_type;location;lat;lon;timestamp;temperature;humidity
21559;DHT22;10940;48.890;8.240;2023-08-31T00:01:39;15.20;99.90
21559;DHT22;10940;48.890;8.240;2023-08-31T00:04:05;15.10;99.90
21559;DHT22;10940;48.890;8.240;2023-08-31T00:06:40;15.10;99.90
21559;DHT22;10940;48.890;8.240;2023-08-31T00:09:05;15.10;99.90
21559;DHT22;10940;48.890;8.240;2023-08-31T00:11:35;15.10;99.90
21559;DHT22;10940;48.890;8.240;2023-08-31T00:14:00;15.10;99.90
21559;DHT22;10940;48.890;8.240;2023-08-31T00:16:26;15.00;99.90
21559;DHT22;10940;48.890;8.240;2023-08-31T00:18:52;15.10;99.90
21559;DHT22;10940;48.890;8.240;2023-08-31T00:21:18;15.10;99.90
21559;DHT22;10940;48.890;8.240;2023-08-31T00:23:43;15.10;99.90
21559;DHT22;10940;48.890;8.240;2023-08-31T00:26:09;15.10;99.90
21559;DHT22;10940;48.890;8.240;2023-08-31T00:28:35;15.00;99.90
21559;DHT22;10940;48.890;8.240;2023-08-31T00:31:02;15.00;99.90
21559;DHT22;10940;48.890;8.240;2023-08-31T00:33:30;15.00;99.90
21559;DHT22;10940;48.890;8.240;2023-08-31T00:35:59;14.90;99.90
21559;DHT22;10940;48.890;8.240;2023-08-31T00:38:27;14.90;99.90
21559;DHT22;10940;48.890;8.240;2023-08-31T00:40:53;14.90;99.90
21559;DHT22;10940;48.890;8.240;2023-08-31T00:43:19;14.90;99.90
21559;DHT22;10940;48.890;8.240;2023-08-31T00:45:48;14.80;99.90
21559;DHT22;10940;48.890;8.240;2023-08-31T00:48:16;14.80;99.90
21559;DHT22;10940;48.890;8.240;2023-08-31T00:50:48;14.80;99.90
21559;DHT22;10940;48.890;8.240;2023-08-31T00:53:14;14.80;99.90
21559;DHT22;10940;48.890;8.240;2023-08-31T00:55:40;14.80;99.90
21559;DHT22;10940;48.890;8.240;2023-08-31T00:58:07;14.70;99.90
21559;DHT22;10940;48.890;8.240;2023-08-31T01:00:40;14.70;99.90
21559;DHT22;10940;48.890;8.240;2023-08-31T01:03:13;14.70;99.90
21559;DHT22;10940;48.890;8.240;2023-08-31T01:05:46;14.70;99.90
21559;DHT22;10940;48.890;8.240;2023-08-31T01:08:34;14.60;99.90
21559;DHT22;10940;48.890;8.240;2023-08-31T01:14:16;14.60;99.90
21559;DHT22;10940;48.890;8.240;2023-08-31T01:16:45;14.50;99.90
21559;DHT22;10940;48.890;8.240;2023-08-31T01:19:34;14.50;99.90
21559;DHT22;10940;48.890;8.240;2023-08-31T01:22:05;14.50;99.90
21559;DHT22;10940;48.890;8.240;2023-08-31T01:24:33;14.50;99.90
21559;DHT22;10940;48.890;8.240;2023-08-31T01:26:59;14.40;99.90
21559;DHT22;10940;48.890;8.240;2023-08-31T01:29:25;14.50;99.90
21559;DHT22;10940;48.890;8.240;2023-08-31T01:31:51;14.50;99.90
21559;DHT22;10940;48.890;8.240;2023-08-31T01:34:16;14.50;99.90
21559;DHT22;10940;48.890;8.240;2023-08-31T01:36:46;14.50;99.90
21559;DHT22;10940;48.890;8.240;2023-08-31T01:39:18;14.50;99.90
21559;DHT22;10940;48.890;8.240;2023-08-31T01:41:51;14.50;99.90
21559;DHT22;10940;48.890;8.240;2023-08-31T01:44:21;14.50;99.90
21559;DHT22;10940;48.890;8.240;2023-08-31T01:46:50;14.50;99.90
21559;DHT22;10940;48.890;8.240;2023-08-31T01:49:16;14.60;99.90
21559;DHT22;10940;48.890;8.240;2023-08-31T01:51:41;14.60;99.90
21559;DHT22;10940;48.890;8.240;2023-08-31T01:54:07;14.60;99.90
21559;DHT22;10940;48.890;8.240;2023-08-31T01:56:33;14.60;99.90
21559;DHT22;10940;48.890;8.240;2023-08-31T01:58:59;14.60;99.90
21559;DHT22;10940;48.890;8.240;2023-08-31T02:01:24;14.60;99.90
21559;DHT22;10940;48.890;8.240;2023-08-31T02:03:50;14.60;99.90
21559;DHT22;10940;48.890;8.240;2023-08-31T02:06:15;14.60;99.90
21559;DHT22;10940;48.890;8.240;2023-08-31T02:08:41;14.60;99.90
21559;DHT22;10940;48.890;8.240;2023-08-31T02:11:09;14.60;99.90
21559;DHT22;10940;48.890;8.240;2023-08-31T02:13:34;14.60;99.90
21559;DHT22;10940;48.890;8.240;2023-08-31T02:16:00;14.60;99.90
21559;DHT22;10940;48.890;8.240;2023-08-31T02:18:25;14.60;99.90
21559;DHT22;10940;48.890;8.240;2023-08-31T02:20:54;14.60;99.90
21559;DHT22;10940;48.890;8.240;2023-08-31T02:23:19;14.60;99.90
21559;DHT22;10940;48.890;8.240;2023-08-31T02:25:45;14.60;99.90
21559;DHT22;10940;48.890;8.240;2023-08-31T02:28:10;14.60;99.90
21559;DHT22;10940;48.890;8.240;2023-08-31T02:30:36;14.60;99.90
21559;DHT22;10940;48.890;8.240;2023-08-31T02:33:03;14.60;99.90
21559;DHT22;10940;48.890;8.240;2023-08-31T02:35:28;14.60;99.90
21559;DHT22;10940;48.890;8.240;2023-08-31T02:37:54;14.60;99.90
21559;DHT22;10940;48.890;8.240;2023-08-31T02:40:19;14.60;99.90
21559;DHT22;10940;48.890;8.240;2023-08-31T02:42:49;14.60;99.90
21559;DHT22;10940;48.890;8.240;2023-08-31T02:45:15;14.50;99.90
21559;DHT22;10940;48.890;8.240;2023-08-31T02:47:41;14.50;99.90
21559;DHT22;10940;48.890;8.240;2023-08-31T02:50:07;14.60;99.90
21559;DHT22;10940;48.890;8.240;2023-08-31T02:52:33;14.60;99.90
21559;DHT22;10940;48.890;8.240;2023-08-31T02:54:59;14.60;99.90
21559;DHT22;10940;48.890;8.240;2023-08-31T02:57:24;14.60;99.90
21559;DHT22;10940;48.890;8.240;2023-08-31T02:59:50;14.50;99.90
21559;DHT22;10940;48.890;8.240;2023-08-31T03:02:16;14.50;99.90
21559;DHT22;10940;48.890;8.240;2023-08-31T03:04:41;14.60;99.90
21559;DHT22;10940;48.890;8.240;2023-08-31T03:07:07;14.50;99.90
21559;DHT22;10940;48.890;8.240;2023-08-31T03:09:32;14.50;99.90
21559;DHT22;10940;48.890;8.240;2023-08-31T03:11:58;14.50;99.90
21559;DHT22;10940;48.890;8.240;2023-08-31T03:14:23;14.50;99.90
21559;DHT22;10940;48.890;8.240;2023-08-31T03:16:49;14.50;99.90
21559;DHT22;10940;48.890;8.240;2023-08-31T03:19:15;14.50;99.90
21559;DHT22;10940;48.890;8.240;2023-08-31T03:21:40;14.60;99.90
21559;DHT22;10940;48.890;8.240;2023-08-31T03:24:06;14.50;99.90
21559;DHT22;10940;48.890;8.240;2023-08-31T03:26:31;14.60;99.90
21559;DHT22;10940;48.890;8.240;2023-08-31T03:28:57;14.60;99.90
21559;DHT22;10940;48.890;8.240;2023-08-31T03:31:23;14.50;99.90
21559;DHT22;10940;48.890;8.240;2023-08-31T03:33:50;14.50;99.90
21559;DHT22;10940;48.890;8.240;2023-08-31T03:36:15;14.60;99.90
21559;DHT22;10940;48.890;8.240;2023-08-31T03:38:41;14.60;99.90
21559;DHT22;10940;48.890;8.240;2023-08-31T03:41:06;14.60;99.90
21559;DHT22;10940;48.890;8.240;2023-08-31T03:43:32;14.60;99.90
21559;DHT22;10940;48.890;8.240;2023-08-31T03:45:58;14.60;99.90
21559;DHT22;10940;48.890;8.240;2023-08-31T03:48:24;14.60;99.90
21559;DHT22;10940;48.890;8.240;2023-08-31T03:50:54;14.60;99.90
21559;DHT22;10940;48.890;8.240;2023-08-31T03:53:20;14.60;99.90
21559;DHT22;10940;48.890;8.240;2023-08-31T03:55:45;14.60;99.90
21559;DHT22;10940;48.890;8.240;2023-08-31T03:58:11;14.70;99.90
21559;DHT22;10940;48.890;8.240;2023-08-31T04:00:37;14.60;99.90
21559;DHT22;10940;48.890;8.240;2023-08-31T04:03:04;14.60;99.90
21559;DHT22;10940;48.890;8.240;2023-08-31T04:05:33;14.60;99.90
21559;DHT22;10940;48.890;8.240;2023-08-31T04:08:02;14.60;99.90
21559;DHT22;10940;48.890;8.240;2023-08-31T04:10:28;14.60;99.90
21559;DHT22;10940;48.890;8.240;2023-08-31T04:12:55;14.60;99.90
21559;DHT22;10940;48.890;8.240;2023-08-31T04:15:21;14.70;99.90
21559;DHT22;10940;48.890;8.240;2023-08-31T04:17:46;14.60;99.90
21559;DHT22;10940;48.890;8.240;2023-08-31T04:20:12;14.60;99.90
21559;DHT22;10940;48.890;8.240;2023-08-31T04:22:38;14.60;99.90
21559;DHT22;10940;48.890;8.240;2023-08-31T04:25:04;14.60;99.90
21559;DHT22;10940;48.890;8.240;2023-08-31T04:27:29;14.60;99.90
21559;DHT22;10940;48.890;8.240;2023-08-31T04:30:02;14.60;99.90
21559;DHT22;10940;48.890;8.240;2023-08-31T04:32:28;14.60;99.90
21559;DHT22;10940;48.890;8.240;2023-08-31T04:34:54;14.60;99.90
21559;DHT22;10940;48.890;8.240;2023-08-31T04:37:21;14.50;99.90
21559;DHT22;10940;48.890;8.240;2023-08-31T04:39:46;14.60;99.90
21559;DHT22;10940;48.890;8.240;2023-08-31T04:42:12;14.60;99.90
21559;DHT22;10940;48.890;8.240;2023-08-31T04:44:37;14.60;99.90
21559;DHT22;10940;48.890;8.240;2023-08-31T04:47:03;14.60;99.90
21559;DHT22;10940;48.890;8.240;2023-08-31T04:49:29;14.60;99.90
21559;DHT22;10940;48.890;8.240;2023-08-31T04:51:55;14.60;99.90
21559;DHT22;10940;48.890;8.240;2023-08-31T04:54:21;14.60;99.90
21559;DHT22;10940;48.890;8.240;2023-08-31T04:56:47;14.60;99.90
21559;DHT22;10940;48.890;8.240;2023-08-31T04:59:12;14.60;99.90
21559;DHT22;10940;48.890;8.240;2023-08-31T05:01:38;14.70;99.90
21559;DHT22;10940;48.890;8.240;2023-08-31T05:04:03;14.70;99.90
21559;DHT22;10940;48.890;8.240;2023-08-31T05:06:29;14.60;99.90
21559;DHT22;10940;48.890;8.240;2023-08-31T05:08:54;14.60;99.90
21559;DHT22;10940;48.890;8.240;2023-08-31T05:11:20;14.70;99.90
21559;DHT22;10940;48.890;8.240;2023-08-31T05:13:47;14.70;99.90
21559;DHT22;10940;48.890;8.240;2023-08-31T05:16:12;14.70;99.90
21559;DHT22;10940;48.890;8.240;2023-08-31T05:18:38;14.60;99.90
21559;DHT22;10940;48.890;8.240;2023-08-31T05:21:05;14.60;99.90
21559;DHT22;10940;48.890;8.240;2023-08-31T05:23:31;14.70;99.90
21559;DHT22;10940;48.890;8.240;2023-08-31T05:25:57;14.60;99.90
21559;DHT22;10940;48.890;8.240;2023-08-31T05:28:23;14.70;99.90
21559;DHT22;10940;48.890;8.240;2023-08-31T05:30:49;14.70;99.90
21559;DHT22;10940;48.890;8.240;2023-08-31T05:33:16;14.60;99.90
21559;DHT22;10940;48.890;8.240;2023-08-31T05:35:42;14.70;99.90
21559;DHT22;10940;48.890;8.240;2023-08-31T05:38:08;14.70;99.90
21559;DHT22;10940;48.890;8.240;2023-08-31T05:40:33;14.70;99.90
21559;DHT22;10940;48.890;8.240;2023-08-31T05:42:59;14.70;99.90
21559;DHT22;10940;48.890;8.240;2023-08-31T05:45:24;14.70;99.90
21559;DHT22;10940;48.890;8.240;2023-08-31T05:47:50;14.70;99.90
21559;DHT22;10940;48.890;8.240;2023-08-31T05:50:16;14.70;99.90
21559;DHT22;10940;48.890;8.240;2023-08-31T05:52:41;14.70;99.90
21559;DHT22;10940;48.890;8.240;2023-08-31T05:55:10;14.80;99.90
21559;DHT22;10940;48.890;8.240;2023-08-31T05:57:35;14.80;99.90
21559;DHT22;10940;48.890;8.240;2023-08-31T06:00:01;14.80;99.90
21559;DHT22;10940;48.890;8.240;2023-08-31T06:02:26;14.90;99.90
21559;DHT22;10940;48.890;8.240;2023-08-31T06:04:53;14.90;99.90
21559;DHT22;10940;48.890;8.240;2023-08-31T06:07:19;14.90;99.90
21559;DHT22;10940;48.890;8.240;2023-08-31T06:09:44;14.90;99.90
21559;DHT22;10940;48.890;8.240;2023-08-31T06:12:10;14.90;99.90
21559;DHT22;10940;48.890;8.240;2023-08-31T06:14:35;15.00;99.90
21559;DHT22;10940;48.890;8.240;2023-08-31T06:17:01;15.00;99.90
21559;DHT22;10940;48.890;8.240;2023-08-31T06:19:28;15.00;99.90
21559;DHT22;10940;48.890;8.240;2023-08-31T06:21:53;15.10;99.90
21559;DHT22;10940;48.890;8.240;2023-08-31T06:24:19;15.10;99.90
21559;DHT22;10940;48.890;8.240;2023-08-31T06:26:44;15.10;99.90
21559;DHT22;10940;48.890;8.240;2023-08-31T06:29:10;15.20;99.90
21559;DHT22;10940;48.890;8.240;2023-08-31T06:31:37;15.20;99.90
21559;DHT22;10940;48.890;8.240;2023-08-31T06:34:02;15.10;99.90
21559;DHT22;10940;48.890;8.240;2023-08-31T06:36:29;15.20;99.90
21559;DHT22;10940;48.890;8.240;2023-08-31T06:38:55;15.20;99.90
21559;DHT22;10940;48.890;8.240;2023-08-31T06:41:21;15.20;99.90
21559;DHT22;10940;48.890;8.240;2023-08-31T06:43:46;15.20;99.90
21559;DHT22;10940;48.890;8.240;2023-08-31T06:46:12;15.20;99.90
21559;DHT22;10940;48.890;8.240;2023-08-31T06:48:37;15.20;99.90
21559;DHT22;10940;48.890;8.240;2023-08-31T06:51:03;15.20;99.90
21559;DHT22;10940;48.890;8.240;2023-08-31T06:53:29;15.30;99.90
21559;DHT22;10940;48.890;8.240;2023-08-31T06:55:56;15.30;99.90
21559;DHT22;10940;48.890;8.240;2023-08-31T06:58:25;15.40;99.90
21559;DHT22;10940;48.890;8.240;2023-08-31T07:00:51;15.40;99.90
21559;DHT22;10940;48.890;8.240;2023-08-31T07:03:16;15.50;99.90
21559;DHT22;10940;48.890;8.240;2023-08-31T07:05:43;15.60;99.90
21559;DHT22;10940;48.890;8.240;2023-08-31T07:08:08;15.70;99.90
21559;DHT22;10940;48.890;8.240;2023-08-31T07:10:34;15.80;99.90
21559;DHT22;10940;48.890;8.240;2023-08-31T07:13:04;15.90;99.90
21559;DHT22;10940;48.890;8.240;2023-08-31T07:15:30;16.00;99.90
21559;DHT22;10940;48.890;8.240;2023-08-31T07:17:55;16.10;99.90
21559;DHT22;10940;48.890;8.240;2023-08-31T07:20:21;16.10;99.90
21559;DHT22;10940;48.890;8.240;2023-08-31T07:22:47;16.10;99.90
21559;DHT22;10940;48.890;8.240;2023-08-31T07:25:13;16.20;99.90
21559;DHT22;10940;48.890;8.240;2023-08-31T07:27:39;16.10;99.90
21559;DHT22;10940;48.890;8.240;2023-08-31T07:30:06;16.10;99.90
21559;DHT22;10940;48.890;8.240;2023-08-31T07:32:32;16.10;99.90
21559;DHT22;10940;48.890;8.240;2023-08-31T07:34:58;16.20;99.90
21559;DHT22;10940;48.890;8.240;2023-08-31T07:37:24;16.30;99.90
21559;DHT22;10940;48.890;8.240;2023-08-31T07:39:49;16.30;99.90
21559;DHT22;10940;48.890;8.240;2023-08-31T07:42:15;16.40;99.90
21559;DHT22;10940;48.890;8.240;2023-08-31T07:44:40;16.50;99.90
21559;DHT22;10940;48.890;8.240;2023-08-31T07:47:07;16.50;99.90
21559;DHT22;10940;48.890;8.240;2023-08-31T07:49:33;16.60;99.90
21559;DHT22;10940;48.890;8.240;2023-08-31T07:51:59;16.70;99.90
21559;DHT22;10940;48.890;8.240;2023-08-31T07:54:25;16.80;99.90
21559;DHT22;10940;48.890;8.240;2023-08-31T07:56:51;16.80;99.90
21559;DHT22;10940;48.890;8.240;2023-08-31T07:59:17;16.90;99.90
21559;DHT22;10940;48.890;8.240;2023-08-31T08:01:43;16.90;99.90
21559;DHT22;10940;48.890;8.240;2023-08-31T08:04:10;17.00;99.90
21559;DHT22;10940;48.890;8.240;2023-08-31T08:06:36;17.10;99.90
21559;DHT22;10940;48.890;8.240;2023-08-31T08:09:01;17.10;99.90
21559;DHT22;10940;48.890;8.240;2023-08-31T08:11:27;17.10;99.90
21559;DHT22;10940;48.890;8.240;2023-08-31T08:13:52;17.20;99.90
21559;DHT22;10940;48.890;8.240;2023-08-31T08:16:18;17.30;99.90
21559;DHT22;10940;48.890;8.240;2023-08-31T08:18:44;17.30;99.90
21559;DHT22;10940;48.890;8.240;2023-08-31T08:21:10;17.40;99.90
21559;DHT22;10940;48.890;8.240;2023-08-31T08:23:35;17.50;99.90
21559;DHT22;10940;48.890;8.240;2023-08-31T08:26:01;17.60;99.90
21559;DHT22;10940;48.890;8.240;2023-08-31T08:28:27;17.70;99.90
21559;DHT22;10940;48.890;8.240;2023-08-31T08:30:53;17.80;99.90
21559;DHT22;10940;48.890;8.240;2023-08-31T08:33:19;17.80;99.90
21559;DHT22;10940;48.890;8.240;2023-08-31T08:35:45;17.80;99.90
21559;DHT22;10940;48.890;8.240;2023-08-31T08:38:11;17.70;99.90
21559;DHT22;10940;48.890;8.240;2023-08-31T08:40:37;17.80;99.90
21559;DHT22;10940;48.890;8.240;2023-08-31T08:43:07;17.80;99.90
21559;DHT22;10940;48.890;8.240;2023-08-31T08:45:37;17.80;99.90
21559;DHT22;10940;48.890;8.240;2023-08-31T08:48:07;17.80;99.90
21559;DHT22;10940;48.890;8.240;2023-08-31T08:50:34;17.80;99.90
21559;DHT22;10940;48.890;8.240;2023-08-31T08:53:04;17.90;99.90
21559;DHT22;10940;48.890;8.240;2023-08-31T08:55:30;17.90;99.90
21559;DHT22;10940;48.890;8.240;2023-08-31T08:57:57;17.90;99.90
21559;DHT22;10940;48.890;8.240;2023-08-31T09:00:24;17.90;99.90
21559;DHT22;10940;48.890;8.240;2023-08-31T09:02:50;18.00;99.90
21559;DHT22;10940;48.890;8.240;2023-08-31T09:05:15;18.00;99.90
21559;DHT22;10940;48.890;8.240;2023-08-31T09:10:33;18.10;99.90
21559;DHT22;10940;48.890;8.240;2023-08-31T09:13:00;18.30;99.90
21559;DHT22;10940;48.890;8.240;2023-08-31T09:15:25;18.30;99.90
21559;DHT22;10940;48.890;8.240;2023-08-31T09:17:51;18.40;99.90
21559;DHT22;10940;48.890;8.240;2023-08-31T09:20:17;18.50;99.90
21559;DHT22;10940;48.890;8.240;2023-08-31T09:22:43;18.60;99.90
21559;DHT22;10940;48.890;8.240;2023-08-31T09:25:12;18.70;99.90
21559;DHT22;10940;48.890;8.240;2023-08-31T09:27:38;18.70;99.90
21559;DHT22;10940;48.890;8.240;2023-08-31T09:30:06;18.70;99.90
21559;DHT22;10940;48.890;8.240;2023-08-31T09:32:32;18.70;99.90
21559;DHT22;10940;48.890;8.240;2023-08-31T09:34:58;18.70;99.90
21559;DHT22;10940;48.890;8.240;2023-08-31T09:37:28;18.80;99.90
21559;DHT22;10940;48.890;8.240;2023-08-31T09:39:53;18.80;99.90
21559;DHT22;10940;48.890;8.240;2023-08-31T09:42:19;18.80;99.90
21559;DHT22;10940;48.890;8.240;2023-08-31T09:44:45;18.90;99.90
21559;DHT22;10940;48.890;8.240;2023-08-31T09:47:14;18.90;99.90
21559;DHT22;10940;48.890;8.240;2023-08-31T09:49:41;18.90;99.90
21559;DHT22;10940;48.890;8.240;2023-08-31T09:52:09;18.90;99.90
21559;DHT22;10940;48.890;8.240;2023-08-31T09:54:35;19.00;99.90
21559;DHT22;10940;48.890;8.240;2023-08-31T09:57:02;19.10;99.90
21559;DHT22;10940;48.890;8.240;2023-08-31T09:59:28;19.20;99.90
21559;DHT22;10940;48.890;8.240;2023-08-31T10:01:54;19.20;99.90
21559;DHT22;10940;48.890;8.240;2023-08-31T10:04:22;19.30;99.90
21559;DHT22;10940;48.890;8.240;2023-08-31T10:06:49;19.30;99.90
21559;DHT22;10940;48.890;8.240;2023-08-31T10:09:14;19.40;99.90
21559;DHT22;10940;48.890;8.240;2023-08-31T10:11:41;19.40;99.90
21559;DHT22;10940;48.890;8.240;2023-08-31T10:14:11;19.40;99.90
21559;DHT22;10940;48.890;8.240;2023-08-31T10:16:39;19.40;99.90
21559;DHT22;10940;48.890;8.240;2023-08-31T10:19:05;19.40;99.90
21559;DHT22;10940;48.890;8.240;2023-08-31T10:21:32;19.40;99.90
21559;DHT22;10940;48.890;8.240;2023-08-31T10:23:59;19.40;99.90
21559;DHT22;10940;48.890;8.240;2023-08-31T10:26:28;19.50;99.90
21559;DHT22;10940;48.890;8.240;2023-08-31T10:28:54;19.50;99.90
21559;DHT22;10940;48.890;8.240;2023-08-31T10:31:21;19.50;99.90
21559;DHT22;10940;48.890;8.240;2023-08-31T10:34:00;19.50;99.90
21559;DHT22;10940;48.890;8.240;2023-08-31T10:36:37;19.60;99.90
21559;DHT22;10940;48.890;8.240;2023-08-31T10:39:22;19.70;99.90
21559;DHT22;10940;48.890;8.240;2023-08-31T10:41:57;19.80;99.90
21559;DHT22;10940;48.890;8.240;2023-08-31T10:44:27;19.80;99.90
21559;DHT22;10940;48.890;8.240;2023-08-31T10:46:54;19.90;99.90
21559;DHT22;10940;48.890;8.240;2023-08-31T10:49:21;19.90;99.90
21559;DHT22;10940;48.890;8.240;2023-08-31T10:51:50;19.90;99.90
21559;DHT22;10940;48.890;8.240;2023-08-31T10:56:55;20.00;99.90
21559;DHT22;10940;48.890;8.240;2023-08-31T10:59:27;20.00;99.90
21559;DHT22;10940;48.890;8.240;2023-08-31T11:02:06;20.00;99.90
21559;DHT22;10940;48.890;8.240;2023-08-31T11:04:55;19.90;99.90
21559;DHT22;10940;48.890;8.240;2023-08-31T11:07:26;19.90;99.90
21559;DHT22;10940;48.890;8.240;2023-08-31T11:09:52;19.80;99.90
21559;DHT22;10940;48.890;8.240;2023-08-31T11:12:22;19.70;99.90
21559;DHT22;10940;48.890;8.240;2023-08-31T11:14:49;19.60;99.90
21559;DHT22;10940;48.890;8.240;2023-08-31T11:17:14;19.70;99.90
21559;DHT22;10940;48.890;8.240;2023-08-31T11:19:41;19.60;99.90
21559;DHT22;10940;48.890;8.240;2023-08-31T11:22:07;19.70;99.90
21559;DHT22;10940;48.890;8.240;2023-08-31T11:24:35;19.80;99.90
21559;DHT22;10940;48.890;8.240;2023-08-31T11:27:00;20.00;99.90
21559;DHT22;10940;48.890;8.240;2023-08-31T11:29:29;20.20;99.90
21559;DHT22;10940;48.890;8.240;2023-08-31T11:31:56;20.40;99.90
21559;DHT22;10940;48.890;8.240;2023-08-31T11:34:23;20.50;99.90
21559;DHT22;10940;48.890;8.240;2023-08-31T11:36:49;20.60;99.90
21559;DHT22;10940;48.890;8.240;2023-08-31T11:39:14;20.60;99.90
21559;DHT22;10940;48.890;8.240;2023-08-31T11:41:42;20.60;99.90
21559;DHT22;10940;48.890;8.240;2023-08-31T11:44:10;20.60;99.90
21559;DHT22;10940;48.890;8.240;2023-08-31T11:46:39;20.80;99.90
21559;DHT22;10940;48.890;8.240;2023-08-31T11:49:06;21.10;99.90
21559;DHT22;10940;48.890;8.240;2023-08-31T11:51:35;21.30;99.90
21559;DHT22;10940;48.890;8.240;2023-08-31T11:54:03;21.50;99.90
21559;DHT22;10940;48.890;8.240;2023-08-31T11:56:42;21.70;99.90
21559;DHT22;10940;48.890;8.240;2023-08-31T11:59:09;21.90;99.90
21559;DHT22;10940;48.890;8.240;2023-08-31T12:01:38;22.00;99.90
21559;DHT22;10940;48.890;8.240;2023-08-31T12:04:16;21.90;99.90
21559;DHT22;10940;48.890;8.240;2023-08-31T12:06:50;21.70;99.90
21559;DHT22;10940;48.890;8.240;2023-08-31T12:09:16;21.50;99.90
21559;DHT22;10940;48.890;8.240;2023-08-31T12:11:42;21.30;99.90
21559;DHT22;10940;48.890;8.240;2023-08-31T12:14:23;21.20;99.90
21559;DHT22;10940;48.890;8.240;2023-08-31T12:16:50;21.10;99.90
21559;DHT22;10940;48.890;8.240;2023-08-31T12:19:16;21.20;99.90
21559;DHT22;10940;48.890;8.240;2023-08-31T12:21:44;21.40;99.90
21559;DHT22;10940;48.890;8.240;2023-08-31T12:24:10;21.70;99.90
21559;DHT22;10940;48.890;8.240;2023-08-31T12:26:35;21.90;99.90
21559;DHT22;10940;48.890;8.240;2023-08-31T12:29:02;22.20;99.90
21559;DHT22;10940;48.890;8.240;2023-08-31T12:31:30;22.40;99.90
21559;DHT22;10940;48.890;8.240;2023-08-31T12:33:55;22.60;99.90
21559;DHT22;10940;48.890;8.240;2023-08-31T12:36:21;22.70;99.90
21559;DHT22;10940;48.890;8.240;2023-08-31T12:38:47;22.50;99.90
21559;DHT22;10940;48.890;8.240;2023-08-31T12:41:12;22.40;99.90
21559;DHT22;10940;48.890;8.240;2023-08-31T12:43:38;22.10;99.90
21559;DHT22;10940;48.890;8.240;2023-08-31T12:46:04;21.90;99.90
21559;DHT22;10940;48.890;8.240;2023-08-31T12:48:34;21.60;99.90
21559;DHT22;10940;48.890;8.240;2023-08-31T12:51:00;21.40;99.90
21559;DHT22;10940;48.890;8.240;2023-08-31T12:53:26;21.30;99.90
21559;DHT22;10940;48.890;8.240;2023-08-31T12:55:53;21.10;99.90
21559;DHT22;10940;48.890;8.240;2023-08-31T12:58:18;21.00;99.90
21559;DHT22;10940;48.890;8.240;2023-08-31T13:00:45;20.90;99.90
21559;DHT22;10940;48.890;8.240;2023-08-31T13:03:12;20.80;99.90
21559;DHT22;10940;48.890;8.240;2023-08-31T13:05:39;20.70;99.90
21559;DHT22;10940;48.890;8.240;2023-08-31T13:08:06;20.60;99.90
21559;DHT22;10940;48.890;8.240;2023-08-31T13:10:32;20.50;99.90
21559;DHT22;10940;48.890;8.240;2023-08-31T13:12:57;20.40;99.90
21559;DHT22;10940;48.890;8.240;2023-08-31T13:15:23;20.30;99.90
21559;DHT22;10940;48.890;8.240;2023-08-31T13:17:48;20.30;99.90
21559;DHT22;10940;48.890;8.240;2023-08-31T13:20:14;20.40;99.90
21559;DHT22;10940;48.890;8.240;2023-08-31T13:22:39;20.40;99.90
21559;DHT22;10940;48.890;8.240;2023-08-31T13:25:05;20.40;99.90
21559;DHT22;10940;48.890;8.240;2023-08-31T13:27:31;20.40;99.90
21559;DHT22;10940;48.890;8.240;2023-08-31T13:29:58;20.50;99.90
21559;DHT22;10940;48.890;8.240;2023-08-31T13:32:24;20.40;99.90
21559;DHT22;10940;48.890;8.240;2023-08-31T13:34:51;20.40;99.90
21559;DHT22;10940;48.890;8.240;2023-08-31T13:37:17;20.60;99.90
21559;DHT22;10940;48.890;8.240;2023-08-31T13:39:42;20.60;99.90
21559;DHT22;10940;48.890;8.240;2023-08-31T13:42:08;20.60;99.90
21559;DHT22;10940;48.890;8.240;2023-08-31T13:44:34;20.80;99.90
21559;DHT22;10940;48.890;8.240;2023-08-31T13:47:00;20.70;99.90
21559;DHT22;10940;48.890;8.240;2023-08-31T13:49:28;20.80;99.90
21559;DHT22;10940;48.890;8.240;2023-08-31T13:51:54;21.00;99.90
21559;DHT22;10940;48.890;8.240;2023-08-31T13:54:19;21.00;99.90
21559;DHT22;10940;48.890;8.240;2023-08-31T13:56:45;21.10;99.90
21559;DHT22;10940;48.890;8.240;2023-08-31T13:59:10;21.10;99.90
21559;DHT22;10940;48.890;8.240;2023-08-31T14:01:36;21.20;99.90
21559;DHT22;10940;48.890;8.240;2023-08-31T14:04:03;21.00;99.90
21559;DHT22;10940;48.890;8.240;2023-08-31T14:06:29;21.10;99.90
21559;DHT22;10940;48.890;8.240;2023-08-31T14:08:55;21.00;99.90
21559;DHT22;10940;48.890;8.240;2023-08-31T14:11:21;21.00;99.90
21559;DHT22;10940;48.890;8.240;2023-08-31T14:13:46;21.00;99.90
21559;DHT22;10940;48.890;8.240;2023-08-31T14:16:12;20.90;99.90
21559;DHT22;10940;48.890;8.240;2023-08-31T14:18:38;20.90;99.90
21559;DHT22;10940;48.890;8.240;2023-08-31T14:21:03;20.80;99.90
21559;DHT22;10940;48.890;8.240;2023-08-31T14:23:29;20.80;99.90
21559;DHT22;10940;48.890;8.240;2023-08-31T14:26:01;20.70;99.90
21559;DHT22;10940;48.890;8.240;2023-08-31T14:28:26;20.60;99.90
21559;DHT22;10940;48.890;8.240;2023-08-31T14:30:52;20.60;99.90
21559;DHT22;10940;48.890;8.240;2023-08-31T14:33:17;20.50;99.90
21559;DHT22;10940;48.890;8.240;2023-08-31T14:35:43;20.50;99.90
21559;DHT22;10940;48.890;8.240;2023-08-31T14:38:10;20.50;99.90
21559;DHT22;10940;48.890;8.240;2023-08-31T14:40:38;20.40;99.90
21559;DHT22;10940;48.890;8.240;2023-08-31T14:43:06;20.40;99.90
21559;DHT22;10940;48.890;8.240;2023-08-31T14:45:32;20.30;99.90
21559;DHT22;10940;48.890;8.240;2023-08-31T14:47:57;20.20;99.90
21559;DHT22;10940;48.890;8.240;2023-08-31T14:50:23;20.20;99.90
21559;DHT22;10940;48.890;8.240;2023-08-31T14:52:49;20.10;99.90
21559;DHT22;10940;48.890;8.240;2023-08-31T14:55:14;20.10;99.90
21559;DHT22;10940;48.890;8.240;2023-08-31T14:57:40;20.00;99.90
21559;DHT22;10940;48.890;8.240;2023-08-31T15:00:08;19.90;99.90
21559;DHT22;10940;48.890;8.240;2023-08-31T15:02:34;19.90;99.90
21559;DHT22;10940;48.890;8.240;2023-08-31T15:05:00;19.90;99.90
21559;DHT22;10940;48.890;8.240;2023-08-31T15:07:26;19.90;99.90
21559;DHT22;10940;48.890;8.240;2023-08-31T15:09:52;19.90;99.90
21559;DHT22;10940;48.890;8.240;2023-08-31T15:12:18;19.90;99.90
21559;DHT22;10940;48.890;8.240;2023-08-31T15:14:43;19.90;99.90
21559;DHT22;10940;48.890;8.240;2023-08-31T15:17:10;19.90;99.90
21559;DHT22;10940;48.890;8.240;2023-08-31T15:19:35;19.90;99.90
21559;DHT22;10940;48.890;8.240;2023-08-31T15:22:01;20.00;99.90
21559;DHT22;10940;48.890;8.240;2023-08-31T15:24:29;20.10;99.90
21559;DHT22;10940;48.890;8.240;2023-08-31T15:26:55;20.10;99.90
21559;DHT22;10940;48.890;8.240;2023-08-31T15:29:21;20.20;99.90
21559;DHT22;10940;48.890;8.240;2023-08-31T15:31:47;20.20;99.90
21559;DHT22;10940;48.890;8.240;2023-08-31T15:34:12;20.20;99.90
21559;DHT22;10940;48.890;8.240;2023-08-31T15:36:38;20.30;99.90